createdAt,value
2024-02-23T00:00:56.520Z,100.00
2024-02-23T00:03:24.804Z,100.00
2024-02-23T00:05:52.992Z,100.00
2024-02-23T00:08:22.679Z,100.00
2024-02-23T00:10:51.415Z,100.00
2024-02-23T00:13:19.716Z,100.00
2024-02-23T00:15:48.084Z,100.00
2024-02-23T00:18:18.346Z,100.00
2024-02-23T00:20:46.774Z,100.00
2024-02-23T00:23:15.105Z,100.00
2024-02-23T00:25:44.846Z,100.00
2024-02-23T00:28:13.065Z,100.00
2024-02-23T00:30:41.237Z,100.00
2024-02-23T00:33:11.172Z,100.00
2024-02-23T00:35:39.464Z,100.00
2024-02-23T00:38:09.246Z,100.00
2024-02-23T00:40:37.652Z,100.00
2024-02-23T00:43:07.341Z,100.00
2024-02-23T00:45:35.577Z,100.00
2024-02-23T00:48:03.856Z,100.00
2024-02-23T00:50:32.151Z,100.00
2024-02-23T00:53:00.476Z,100.00
2024-02-23T00:55:28.770Z,100.00
2024-02-23T00:57:57.272Z,100.00
2024-02-23T01:00:26.879Z,100.00
2024-02-23T01:02:55.393Z,100.00
2024-02-23T01:05:23.763Z,100.00
2024-02-23T01:07:51.995Z,100.00
2024-02-23T01:10:20.481Z,100.00
2024-02-23T01:12:48.713Z,100.00
2024-02-23T01:15:17.251Z,100.00
2024-02-23T01:17:46.858Z,100.00
2024-02-23T01:20:15.502Z,100.00
2024-02-23T01:22:43.782Z,100.00
2024-02-23T01:25:12.034Z,100.00
2024-02-23T01:27:41.396Z,100.00
2024-02-23T01:30:10.347Z,100.00
2024-02-23T01:32:40.284Z,100.00
2024-02-23T01:35:10.661Z,100.00
2024-02-23T01:37:38.958Z,100.00
2024-02-23T01:40:08.768Z,100.00
2024-02-23T01:42:37.128Z,100.00
2024-02-23T01:45:06.122Z,100.00
2024-02-23T01:47:34.457Z,100.00
2024-02-23T01:50:03.260Z,100.00
2024-02-23T01:52:33.486Z,100.00
2024-02-23T01:55:02.064Z,100.00
2024-02-23T01:57:42.488Z,100.00
2024-02-23T02:00:19.963Z,100.00
2024-02-23T02:02:54.683Z,100.00
2024-02-23T02:05:23.935Z,100.00
2024-02-23T02:07:59.990Z,100.00
2024-02-23T02:10:28.482Z,100.00
2024-02-23T02:12:56.745Z,100.00
2024-02-23T02:15:25.046Z,100.00
2024-02-23T02:17:53.292Z,100.00
2024-02-23T02:20:26.621Z,99.46
2024-02-23T02:22:56.558Z,99.18
2024-02-23T02:25:24.793Z,98.54
2024-02-23T02:27:53.114Z,98.31
2024-02-23T02:30:21.375Z,97.49
2024-02-23T02:32:49.738Z,97.01
2024-02-23T02:35:18.330Z,96.43
2024-02-23T02:37:46.605Z,95.26
2024-02-23T02:40:16.824Z,94.49
2024-02-23T02:42:45.497Z,92.81
2024-02-23T02:45:13.832Z,90.85
2024-02-23T02:47:42.440Z,88.61
2024-02-23T02:50:11.487Z,83.03
2024-02-23T02:52:39.699Z,78.07
2024-02-23T02:55:09.289Z,74.08
2024-02-23T02:57:38.818Z,72.25
2024-02-23T03:00:11.839Z,70.54
2024-02-23T03:02:40.196Z,69.76
2024-02-23T03:05:09.196Z,70.07
2024-02-23T03:07:37.463Z,69.11
2024-02-23T03:10:06.721Z,69.58
2024-02-23T03:12:34.898Z,69.66
2024-02-23T03:15:04.839Z,69.43
2024-02-23T03:17:34.330Z,70.08
2024-02-23T03:20:02.929Z,70.85
2024-02-23T03:22:31.316Z,70.09
2024-02-23T03:24:59.503Z,69.30
2024-02-23T03:27:31.203Z,69.57
2024-02-23T03:29:59.415Z,69.36
2024-02-23T03:32:29.071Z,69.12
2024-02-23T03:34:57.371Z,69.35
2024-02-23T03:37:25.566Z,70.03
2024-02-23T03:39:53.815Z,69.20
2024-02-23T03:42:22.434Z,68.31
2024-02-23T03:44:51.369Z,68.97
2024-02-23T03:47:19.676Z,69.14
2024-02-23T03:49:49.321Z,68.39
2024-02-23T03:52:17.542Z,68.74
2024-02-23T03:54:45.723Z,68.31
2024-02-23T03:57:14.084Z,68.87
2024-02-23T03:59:42.418Z,68.43
2024-02-23T04:02:10.633Z,67.61
2024-02-23T04:04:38.841Z,67.42
2024-02-23T04:07:08.443Z,68.35
2024-02-23T04:09:36.701Z,68.40
2024-02-23T04:12:05.721Z,69.03
2024-02-23T04:14:35.045Z,68.29
2024-02-23T04:17:03.308Z,69.38
2024-02-23T04:19:31.586Z,69.03
2024-02-23T04:21:59.983Z,69.33
2024-02-23T04:24:29.538Z,68.89
2024-02-23T04:26:57.731Z,69.18
2024-02-23T04:29:25.930Z,69.08
2024-02-23T04:31:54.166Z,69.03
2024-02-23T04:34:22.440Z,69.75
2024-02-23T04:36:50.685Z,69.07
2024-02-23T04:39:19.016Z,69.11
2024-02-23T04:41:48.564Z,69.23
2024-02-23T04:44:16.992Z,68.54
2024-02-23T04:46:45.280Z,68.02
2024-02-23T04:49:14.231Z,69.29
2024-02-23T04:51:42.481Z,68.75
2024-02-23T04:54:10.671Z,67.99
2024-02-23T04:56:38.981Z,68.68
2024-02-23T04:59:08.632Z,69.05
2024-02-23T05:01:39.990Z,68.15
2024-02-23T05:04:08.213Z,68.03
2024-02-23T05:06:36.525Z,67.23
2024-02-23T05:09:05.348Z,67.06
2024-02-23T05:11:33.593Z,68.17
2024-02-23T05:14:01.928Z,68.01
2024-02-23T05:16:31.593Z,67.57
2024-02-23T05:18:59.895Z,67.48
2024-02-23T05:21:28.099Z,68.23
2024-02-23T05:23:56.292Z,68.01
2024-02-23T05:26:24.565Z,68.13
2024-02-23T05:28:53.612Z,67.78
2024-02-23T05:31:22.180Z,67.94
2024-02-23T05:33:51.767Z,67.74
2024-02-23T05:36:20.955Z,68.24
2024-02-23T05:38:49.205Z,67.25
2024-02-23T05:41:17.426Z,67.93
2024-02-23T05:43:45.748Z,67.56
2024-02-23T05:46:14.060Z,67.54
2024-02-23T05:48:42.491Z,67.91
2024-02-23T05:51:12.089Z,66.94
2024-02-23T05:53:40.327Z,66.56
2024-02-23T05:56:08.794Z,66.78
2024-02-23T05:58:37.174Z,67.08
2024-02-23T06:01:05.629Z,66.58
2024-02-23T06:03:33.926Z,66.48
2024-02-23T06:06:02.191Z,66.11
2024-02-23T06:08:31.793Z,66.71
2024-02-23T06:11:01.033Z,67.32
2024-02-23T06:13:30.207Z,66.97
2024-02-23T06:15:58.572Z,67.64
2024-02-23T06:18:26.865Z,68.07
2024-02-23T06:20:55.097Z,67.60
2024-02-23T06:23:24.088Z,67.59
2024-02-23T06:25:53.891Z,68.31
2024-02-23T06:28:22.107Z,68.69
2024-02-23T06:30:50.290Z,68.97
2024-02-23T06:33:18.576Z,68.95
2024-02-23T06:35:47.136Z,69.54
2024-02-23T06:38:15.430Z,70.13
2024-02-23T06:40:48.877Z,70.43
2024-02-23T06:43:23.477Z,70.11
2024-02-23T06:45:52.132Z,69.76
2024-02-23T06:48:20.572Z,70.57
2024-02-23T06:50:48.977Z,70.37
2024-02-23T06:53:17.405Z,69.94
2024-02-23T06:55:45.621Z,69.63
2024-02-23T06:58:15.545Z,68.78
2024-02-23T07:00:47.351Z,69.36
2024-02-23T07:03:16.088Z,69.27
2024-02-23T07:05:44.605Z,68.89
2024-02-23T07:08:12.989Z,69.93
2024-02-23T07:10:41.462Z,70.40
2024-02-23T07:13:09.952Z,69.35
2024-02-23T07:15:38.397Z,68.82
2024-02-23T07:18:09.739Z,69.28
2024-02-23T07:20:38.881Z,68.40
2024-02-23T07:23:07.840Z,68.32
2024-02-23T07:25:37.139Z,69.02
2024-02-23T07:28:05.636Z,68.03
2024-02-23T07:30:33.930Z,68.33
2024-02-23T07:33:02.179Z,68.16
2024-02-23T07:35:31.987Z,68.58
2024-02-23T07:38:00.831Z,68.34
2024-02-23T07:40:29.032Z,68.54
2024-02-23T07:42:57.356Z,68.37
2024-02-23T07:45:26.820Z,68.20
2024-02-23T07:47:55.134Z,67.71
2024-02-23T07:50:23.541Z,67.49
2024-02-23T07:52:53.244Z,66.58
2024-02-23T07:55:21.498Z,67.13
2024-02-23T07:57:50.052Z,66.33
2024-02-23T08:00:18.952Z,65.81
2024-02-23T08:02:47.184Z,64.71
2024-02-23T08:05:15.574Z,64.47
2024-02-23T08:07:44.944Z,64.06
2024-02-23T08:10:14.512Z,64.36
2024-02-23T08:12:43.705Z,65.41
2024-02-23T08:15:12.281Z,64.87
2024-02-23T08:17:40.753Z,66.23
2024-02-23T08:20:10.121Z,65.79
2024-02-23T08:22:38.602Z,65.46
2024-02-23T08:25:07.251Z,65.22
2024-02-23T08:27:36.788Z,65.69
2024-02-23T08:30:05.859Z,66.13
2024-02-23T08:32:34.167Z,66.33
2024-02-23T08:35:02.536Z,66.94
2024-02-23T08:37:30.789Z,67.42
2024-02-23T08:39:58.977Z,67.50
2024-02-23T08:42:27.806Z,66.53
2024-02-23T08:44:57.476Z,65.75
2024-02-23T08:47:26.006Z,65.57
2024-02-23T08:49:54.401Z,64.96
2024-02-23T08:52:23.075Z,65.49
2024-02-23T08:54:51.348Z,65.79
2024-02-23T08:57:21.026Z,64.97
2024-02-23T08:59:49.369Z,65.50
2024-02-23T09:02:19.824Z,64.61
2024-02-23T09:04:48.379Z,65.76
2024-02-23T09:07:16.658Z,65.90
2024-02-23T09:09:45.590Z,65.24
2024-02-23T09:12:15.996Z,65.65
2024-02-23T09:14:44.724Z,65.17
2024-02-23T09:17:13.795Z,64.57
2024-02-23T09:19:43.527Z,65.48
2024-02-23T09:22:11.779Z,65.71
2024-02-23T09:24:41.444Z,65.92
2024-02-23T09:27:09.795Z,66.05
2024-02-23T09:29:38.061Z,66.05
2024-02-23T09:32:07.242Z,66.06
2024-02-23T09:34:35.511Z,65.60
2024-02-23T09:37:05.113Z,64.89
2024-02-23T09:39:33.293Z,64.61
2024-02-23T09:42:03.792Z,64.28
2024-02-23T09:44:35.522Z,64.19
2024-02-23T09:47:09.389Z,64.40
2024-02-23T09:49:40.192Z,65.32
2024-02-23T09:52:11.527Z,66.13
2024-02-23T09:54:41.096Z,66.43
2024-02-23T09:57:11.233Z,66.26
2024-02-23T09:59:40.370Z,65.17
2024-02-23T10:02:11.053Z,65.37
2024-02-23T10:04:40.791Z,64.23
2024-02-23T10:07:10.494Z,63.60
2024-02-23T10:09:39.010Z,62.76
2024-02-23T10:12:08.858Z,62.74
2024-02-23T10:14:37.287Z,62.03
2024-02-23T10:17:08.135Z,61.07
2024-02-23T10:19:36.540Z,60.63
2024-02-23T10:22:04.951Z,60.60
2024-02-23T10:24:34.514Z,60.26
2024-02-23T10:27:03.496Z,60.14
2024-02-23T10:29:32.619Z,61.13
2024-02-23T10:32:04.535Z,60.00
2024-02-23T10:34:33.790Z,60.18
2024-02-23T10:37:02.008Z,59.76
2024-02-23T10:39:31.843Z,59.11
2024-02-23T10:42:05.971Z,59.65
2024-02-23T10:44:34.365Z,57.85
2024-02-23T10:47:04.187Z,57.58
2024-02-23T10:49:33.308Z,57.98
2024-02-23T10:52:03.803Z,57.07
2024-02-23T10:54:33.380Z,58.16
2024-02-23T10:57:04.442Z,58.51
2024-02-23T10:59:33.046Z,57.73
2024-02-23T11:02:02.394Z,57.42
2024-02-23T11:04:33.711Z,57.67
2024-02-23T11:07:06.458Z,58.14
2024-02-23T11:09:34.915Z,59.97
2024-02-23T11:12:07.407Z,59.34
2024-02-23T11:14:38.396Z,58.77
2024-02-23T11:17:07.280Z,59.06
2024-02-23T11:19:37.134Z,59.17
2024-02-23T11:22:09.215Z,58.04
2024-02-23T11:24:46.450Z,56.51
2024-02-23T11:27:19.326Z,58.59
2024-02-23T11:29:48.645Z,59.03
2024-02-23T11:32:18.532Z,57.57
2024-02-23T11:34:57.735Z,58.16
2024-02-23T11:37:26.062Z,57.67
2024-02-23T11:39:55.076Z,58.45
2024-02-23T11:42:25.847Z,59.05
2024-02-23T11:44:55.828Z,58.48
2024-02-23T11:47:24.090Z,58.86
2024-02-23T11:49:53.542Z,57.68
2024-02-23T11:52:22.244Z,57.83
2024-02-23T11:54:50.645Z,57.86
2024-02-23T11:57:19.256Z,58.10
2024-02-23T11:59:48.899Z,57.56
2024-02-23T12:02:17.118Z,57.91
2024-02-23T12:04:45.553Z,57.97
2024-02-23T12:07:14.406Z,57.38
2024-02-23T12:09:43.159Z,57.48
2024-02-23T12:12:11.698Z,57.03
2024-02-23T12:14:41.564Z,56.88
2024-02-23T12:17:11.266Z,56.77
2024-02-23T12:19:40.906Z,57.17
2024-02-23T12:22:09.283Z,56.33
2024-02-23T12:24:37.497Z,56.60
2024-02-23T12:27:07.202Z,57.10
2024-02-23T12:29:35.669Z,56.53
2024-02-23T12:32:08.138Z,56.07
2024-02-23T12:34:37.899Z,56.17
2024-02-23T12:37:07.038Z,56.87
2024-02-23T12:39:35.294Z,56.51
2024-02-23T12:42:03.703Z,56.92
2024-02-23T12:44:31.992Z,56.97
2024-02-23T12:47:00.413Z,56.81
2024-02-23T12:49:28.874Z,57.03
2024-02-23T12:51:58.556Z,57.38
2024-02-23T12:54:26.823Z,57.26
2024-02-23T12:56:55.150Z,56.66
2024-02-23T12:59:23.621Z,57.10
2024-02-23T13:01:53.420Z,56.52
2024-02-23T13:04:22.041Z,55.31
2024-02-23T13:06:50.534Z,56.57
2024-02-23T13:09:20.161Z,55.39
2024-02-23T13:11:49.204Z,56.29
2024-02-23T13:14:17.751Z,56.49
2024-02-23T13:16:46.016Z,55.71
2024-02-23T13:19:14.301Z,55.59
2024-02-23T13:21:43.574Z,56.49
2024-02-23T13:24:11.838Z,57.12
2024-02-23T13:26:41.354Z,57.23
2024-02-23T13:29:09.570Z,56.90
2024-02-23T13:31:39.426Z,56.82
2024-02-23T13:34:08.206Z,56.91
2024-02-23T13:36:36.473Z,57.00
2024-02-23T13:39:04.781Z,57.55
2024-02-23T13:41:33.248Z,57.26
2024-02-23T13:44:02.846Z,58.09
2024-02-23T13:46:31.239Z,58.92
2024-02-23T13:49:07.734Z,58.47
2024-02-23T13:51:36.123Z,58.03
2024-02-23T13:54:05.113Z,59.40
2024-02-23T13:56:33.415Z,58.96
2024-02-23T13:59:03.440Z,58.74
2024-02-23T14:01:31.819Z,59.19
2024-02-23T14:04:00.321Z,59.88
2024-02-23T14:06:28.637Z,59.62
2024-02-23T14:08:56.867Z,59.15
2024-02-23T14:11:25.193Z,59.08
2024-02-23T14:13:54.991Z,59.36
2024-02-23T14:16:25.349Z,59.29
2024-02-23T14:18:53.869Z,59.54
2024-02-23T14:21:22.716Z,59.68
2024-02-23T14:23:50.887Z,59.81
2024-02-23T14:26:19.385Z,60.11
2024-02-23T14:28:47.638Z,59.55
2024-02-23T14:31:15.942Z,60.03
2024-02-23T14:33:48.020Z,59.53
2024-02-23T14:36:16.745Z,59.13
2024-02-23T14:38:45.135Z,59.30
2024-02-23T14:41:13.521Z,59.33
2024-02-23T14:43:41.759Z,60.39
2024-02-23T14:46:10.518Z,60.41
2024-02-23T14:48:38.908Z,60.15
2024-02-23T14:51:10.446Z,60.70
2024-02-23T14:53:38.994Z,60.63
2024-02-23T14:56:07.998Z,60.67
2024-02-23T14:58:36.241Z,61.32
2024-02-23T15:01:05.141Z,61.28
2024-02-23T15:03:34.206Z,61.37
2024-02-23T15:06:03.257Z,61.70
2024-02-23T15:08:32.893Z,60.96
2024-02-23T15:11:01.237Z,61.47
2024-02-23T15:13:29.582Z,61.45
2024-02-23T15:15:57.898Z,61.88
2024-02-23T15:18:26.165Z,61.76
2024-02-23T15:20:54.651Z,62.44
2024-02-23T15:23:25.010Z,62.21
2024-02-23T15:26:04.141Z,62.37
2024-02-23T15:28:36.029Z,62.10
2024-02-23T15:31:04.687Z,63.26
2024-02-23T15:33:33.124Z,63.35
2024-02-23T15:36:01.438Z,63.88
2024-02-23T15:38:29.832Z,63.62
2024-02-23T15:40:59.390Z,64.79
2024-02-23T15:43:29.199Z,65.61
2024-02-23T15:45:57.479Z,64.93
2024-02-23T15:48:26.002Z,64.86
2024-02-23T15:51:10.228Z,65.21
2024-02-23T15:53:42.858Z,65.22
2024-02-23T15:56:12.538Z,65.70
2024-02-23T15:58:40.903Z,66.65
2024-02-23T16:01:09.189Z,66.79
2024-02-23T16:03:37.875Z,67.75
2024-02-23T16:06:06.820Z,67.95
2024-02-23T16:08:42.379Z,68.64
2024-02-23T16:11:12.763Z,69.91
2024-02-23T16:13:42.538Z,70.74
2024-02-23T16:16:12.169Z,71.82
2024-02-23T16:18:40.724Z,72.49
2024-02-23T16:21:10.714Z,73.63
2024-02-23T16:23:39.044Z,74.55
2024-02-23T16:26:07.465Z,76.11
2024-02-23T16:28:37.804Z,75.90
2024-02-23T16:31:06.067Z,73.83
2024-02-23T16:33:34.410Z,73.17
2024-02-23T16:36:02.668Z,72.10
2024-02-23T16:38:30.920Z,71.31
2024-02-23T16:40:59.203Z,71.20
2024-02-23T16:43:27.622Z,71.44
2024-02-23T16:45:57.176Z,71.18
2024-02-23T16:48:25.451Z,70.86
2024-02-23T16:50:54.686Z,71.17
2024-02-23T16:53:23.061Z,71.05
2024-02-23T16:55:51.357Z,71.63
2024-02-23T16:58:23.299Z,71.13
2024-02-23T17:00:54.365Z,71.12
2024-02-23T17:03:23.955Z,71.37
2024-02-23T17:05:52.984Z,71.24
2024-02-23T17:08:21.358Z,71.27
2024-02-23T17:10:49.817Z,70.74
2024-02-23T17:13:18.125Z,70.95
2024-02-23T17:15:46.319Z,71.35
2024-02-23T17:18:17.868Z,71.25
2024-02-23T17:20:47.474Z,71.27
2024-02-23T17:23:15.713Z,71.03
2024-02-23T17:25:44.783Z,71.06
2024-02-23T17:28:14.304Z,71.17
2024-02-23T17:30:42.671Z,71.25
2024-02-23T17:33:11.004Z,71.42
2024-02-23T17:35:39.881Z,72.08
2024-02-23T17:38:09.797Z,72.10
2024-02-23T17:40:38.015Z,71.62
2024-02-23T17:43:06.211Z,72.33
2024-02-23T17:45:34.404Z,72.56
2024-02-23T17:48:02.741Z,72.47
2024-02-23T17:50:32.262Z,73.46
2024-02-23T17:53:00.581Z,73.62
2024-02-23T17:55:30.234Z,74.22
2024-02-23T17:58:02.696Z,74.18
2024-02-23T18:00:37.589Z,75.31
2024-02-23T18:03:06.229Z,76.21
2024-02-23T18:05:34.528Z,76.15
2024-02-23T18:08:03.263Z,76.58
2024-02-23T18:10:33.528Z,78.89
2024-02-23T18:13:02.758Z,80.59
2024-02-23T18:15:30.937Z,80.52
2024-02-23T18:17:59.389Z,80.80
2024-02-23T18:20:27.742Z,82.08
2024-02-23T18:22:56.823Z,82.97
2024-02-23T18:25:25.077Z,83.09
2024-02-23T18:27:54.634Z,83.67
2024-02-23T18:30:22.856Z,84.57
2024-02-23T18:32:51.258Z,84.41
2024-02-23T18:35:19.781Z,84.88
2024-02-23T18:37:48.389Z,85.96
2024-02-23T18:40:16.818Z,86.19
2024-02-23T18:42:45.024Z,86.16
2024-02-23T18:45:15.455Z,85.46
2024-02-23T18:47:43.766Z,85.75
2024-02-23T18:50:12.389Z,85.55
2024-02-23T18:52:40.719Z,86.63
2024-02-23T18:55:09.609Z,87.31
2024-02-23T18:57:37.852Z,86.93
2024-02-23T19:00:07.720Z,85.92
2024-02-23T19:02:37.491Z,85.69
2024-02-23T19:05:07.576Z,85.79
2024-02-23T19:07:35.900Z,86.46
2024-02-23T19:10:04.442Z,87.00
2024-02-23T19:12:32.927Z,87.00
2024-02-23T19:15:01.419Z,87.72
2024-02-23T19:17:30.516Z,88.27
2024-02-23T19:20:00.297Z,89.03
2024-02-23T19:22:29.250Z,89.40
2024-02-23T19:24:57.457Z,90.43
2024-02-23T19:27:25.676Z,92.16
2024-02-23T19:29:54.591Z,93.21
2024-02-23T19:32:22.806Z,93.44
2024-02-23T19:34:51.033Z,93.41
2024-02-23T19:37:20.575Z,93.64
2024-02-23T19:39:48.921Z,92.86
2024-02-23T19:42:17.113Z,91.77
2024-02-23T19:44:45.371Z,92.55
2024-02-23T19:47:14.366Z,92.48
2024-02-23T19:49:42.600Z,92.62
2024-02-23T19:52:14.734Z,92.72
2024-02-23T19:54:46.076Z,93.29
2024-02-23T19:57:14.321Z,93.58
2024-02-23T19:59:42.624Z,94.12
2024-02-23T20:02:13.975Z,94.35
2024-02-23T20:04:43.094Z,94.37
2024-02-23T20:07:14.241Z,94.55
2024-02-23T20:09:43.813Z,94.58
2024-02-23T20:12:14.802Z,95.37
2024-02-23T20:14:43.898Z,96.51
2024-02-23T20:17:12.201Z,96.81
2024-02-23T20:19:41.572Z,97.10
2024-02-23T20:22:09.888Z,95.67
2024-02-23T20:24:39.989Z,95.33
2024-02-23T20:27:11.112Z,94.44
2024-02-23T20:29:39.372Z,94.38
2024-02-23T20:32:15.993Z,94.02
2024-02-23T20:34:51.121Z,93.72
2024-02-23T20:37:19.501Z,93.46
2024-02-23T20:39:47.765Z,93.76
2024-02-23T20:42:17.753Z,93.99
2024-02-23T20:44:46.027Z,93.75
2024-02-23T20:47:14.783Z,93.84
2024-02-23T20:49:44.501Z,93.63
2024-02-23T20:52:16.920Z,93.44
2024-02-23T20:54:48.045Z,93.09
2024-02-23T20:57:18.314Z,93.35
2024-02-23T20:59:46.846Z,93.98
2024-02-23T21:02:20.687Z,94.26
2024-02-23T21:04:50.239Z,94.12
2024-02-23T21:07:19.584Z,93.74
2024-02-23T21:09:48.385Z,94.39
2024-02-23T21:12:18.518Z,94.26
2024-02-23T21:14:46.931Z,94.10
2024-02-23T21:17:17.062Z,93.98
2024-02-23T21:19:45.276Z,93.42
2024-02-23T21:22:13.482Z,93.90
2024-02-23T21:24:45.917Z,94.07
2024-02-23T21:27:14.572Z,94.62
2024-02-23T21:29:45.086Z,94.85
2024-02-23T21:32:13.538Z,95.26
2024-02-23T21:34:41.915Z,95.13
2024-02-23T21:37:13.511Z,95.29
2024-02-23T21:39:41.818Z,95.13
2024-02-23T21:42:10.109Z,95.27
2024-02-23T21:44:38.312Z,95.37
2024-02-23T21:47:08.052Z,95.42
2024-02-23T21:49:35.488Z,95.81
2024-02-23T21:52:06.522Z,95.95
2024-02-23T21:54:34.990Z,96.25
2024-02-23T21:57:03.649Z,96.53
2024-02-23T21:59:32.014Z,97.20
2024-02-23T22:02:05.572Z,97.79
2024-02-23T22:04:36.736Z,98.67
2024-02-23T22:07:05.413Z,99.10
2024-02-23T22:09:33.605Z,99.45
2024-02-23T22:12:02.807Z,99.79
2024-02-23T22:14:31.612Z,100.00
2024-02-23T22:16:59.946Z,99.92
2024-02-23T22:19:28.384Z,100.00
2024-02-23T22:21:57.977Z,100.00
2024-02-23T22:24:26.293Z,100.00
2024-02-23T22:26:56.024Z,100.00
2024-02-23T22:29:24.301Z,99.64
2024-02-23T22:31:52.634Z,99.59
2024-02-23T22:34:21.493Z,100.00
2024-02-23T22:36:50.475Z,99.80
2024-02-23T22:39:20.521Z,100.00
2024-02-23T22:41:48.920Z,100.00
2024-02-23T22:44:17.417Z,100.00
2024-02-23T22:46:46.813Z,100.00
2024-02-23T22:49:15.141Z,100.00
2024-02-23T22:51:45.153Z,100.00
2024-02-23T22:54:13.607Z,100.00
2024-02-23T22:56:43.340Z,100.00
2024-02-23T22:59:12.450Z,100.00
2024-02-23T23:01:41.180Z,100.00
2024-02-23T23:04:09.483Z,100.00
2024-02-23T23:06:39.226Z,100.00
2024-02-23T23:09:10.387Z,100.00
2024-02-23T23:11:39.226Z,100.00
2024-02-23T23:14:09.694Z,100.00
2024-02-23T23:16:38.206Z,100.00
2024-02-23T23:19:06.550Z,100.00
2024-02-23T23:21:34.809Z,100.00
2024-02-23T23:24:03.041Z,100.00
2024-02-23T23:26:31.378Z,100.00
2024-02-23T23:28:59.630Z,100.00
2024-02-23T23:31:29.821Z,100.00
2024-02-23T23:33:58.724Z,100.00
2024-02-23T23:36:27.024Z,100.00
2024-02-23T23:39:00.016Z,100.00
2024-02-23T23:41:28.242Z,100.00
2024-02-23T23:43:56.527Z,100.00
2024-02-23T23:46:24.782Z,100.00
2024-02-23T23:48:54.295Z,100.00
2024-02-23T23:51:22.539Z,100.00
2024-02-23T23:53:56.437Z,100.00
2024-02-23T23:56:24.839Z,100.00
2024-02-23T23:58:53.040Z,100.00
